createdAt,value
2018-11-10T00:01:23.508Z,12.87
2018-11-10T00:06:27.355Z,13.47
2018-11-10T00:11:31.710Z,12.83
2018-11-10T00:16:35.786Z,12.90
2018-11-10T00:21:40.227Z,13.07
2018-11-10T00:26:43.953Z,13.73
2018-11-10T00:31:47.701Z,12.90
2018-11-10T00:36:51.276Z,12.93
2018-11-10T00:41:54.990Z,13.23
2018-11-10T00:46:58.500Z,12.97
2018-11-10T00:52:01.807Z,12.57
2018-11-10T00:57:05.507Z,13.00
2018-11-10T01:02:08.921Z,14.17
2018-11-10T01:07:12.349Z,13.20
2018-11-10T01:12:15.625Z,13.27
2018-11-10T01:17:18.992Z,13.17
2018-11-10T01:22:22.489Z,12.67
2018-11-10T01:27:25.822Z,12.73
2018-11-10T01:32:29.171Z,12.73
2018-11-10T01:37:32.599Z,12.50
2018-11-10T01:42:35.982Z,11.37
2018-11-10T01:47:39.498Z,11.70
2018-11-10T01:52:43.236Z,11.80
2018-11-10T01:57:46.804Z,12.40
2018-11-10T02:02:50.333Z,11.60
2018-11-10T02:07:53.910Z,10.47
2018-11-10T02:12:57.265Z,11.57
2018-11-10T02:18:00.876Z,11.30
2018-11-10T02:23:04.481Z,11.47
2018-11-10T02:28:08.057Z,10.67
2018-11-10T02:33:11.425Z,11.13
2018-11-10T02:38:14.853Z,10.40
2018-11-10T02:43:18.223Z,10.40
2018-11-10T02:48:21.593Z,9.87
2018-11-10T02:53:24.868Z,10.20
2018-11-10T02:58:28.190Z,10.57
2018-11-10T03:03:31.539Z,11.13
2018-11-10T03:08:34.937Z,11.20
2018-11-10T03:13:38.473Z,11.07
2018-11-10T03:18:41.888Z,10.57
2018-11-10T03:23:45.360Z,11.33
2018-11-10T03:28:48.737Z,10.87
2018-11-10T03:33:52.305Z,11.95
2018-11-10T03:38:55.622Z,10.13
2018-11-10T03:43:58.914Z,14.50
2018-11-10T03:49:02.192Z,11.83
2018-11-10T03:54:06.364Z,11.33
2018-11-10T03:59:09.724Z,11.30
2018-11-10T04:04:13.410Z,10.57
2018-11-10T04:09:16.817Z,11.00
2018-11-10T04:14:20.163Z,11.30
2018-11-10T04:19:23.450Z,11.40
2018-11-10T04:24:26.721Z,10.80
2018-11-10T04:29:30.121Z,11.80
2018-11-10T04:34:33.645Z,12.27
2018-11-10T04:39:37.153Z,12.65
2018-11-10T04:44:40.604Z,11.03
2018-11-10T04:49:44.030Z,11.00
2018-11-10T04:54:47.525Z,10.83
2018-11-10T04:59:51.186Z,10.33
2018-11-10T05:04:54.631Z,13.20
2018-11-10T05:09:58.017Z,11.47
2018-11-10T05:15:01.339Z,9.77
2018-11-10T05:20:05.234Z,10.77
2018-11-10T05:25:09.585Z,10.17
2018-11-10T05:30:12.998Z,10.87
2018-11-10T05:35:16.389Z,9.90
2018-11-10T05:40:19.676Z,9.33
2018-11-10T05:45:23.165Z,9.47
2018-11-10T05:50:26.585Z,9.53
2018-11-10T05:55:29.896Z,10.10
2018-11-10T06:00:33.657Z,8.80
2018-11-10T06:05:37.033Z,8.97
2018-11-10T06:10:40.327Z,9.90
2018-11-10T06:15:43.675Z,8.53
2018-11-10T06:20:47.195Z,8.73
2018-11-10T06:25:50.684Z,8.00
2018-11-10T06:30:54.257Z,7.83
2018-11-10T06:35:57.613Z,7.23
2018-11-10T06:41:00.901Z,6.87
2018-11-10T06:46:04.273Z,10.23
2018-11-10T06:51:08.365Z,6.90
2018-11-10T06:56:11.742Z,6.47
2018-11-10T07:01:15.298Z,6.33
2018-11-10T07:06:18.912Z,6.77
2018-11-10T07:11:22.285Z,6.20
2018-11-10T07:16:25.877Z,7.03
2018-11-10T07:21:29.434Z,6.30
2018-11-10T07:26:33.134Z,6.72
2018-11-10T07:31:36.921Z,6.57
2018-11-10T07:36:40.330Z,6.07
2018-11-10T07:41:43.604Z,6.63
2018-11-10T07:46:46.933Z,6.50
2018-11-10T07:51:50.345Z,7.20
2018-11-10T07:56:53.777Z,6.53
2018-11-10T08:01:57.173Z,6.80
2018-11-10T08:07:00.508Z,6.07
2018-11-10T08:12:03.850Z,5.80
2018-11-10T08:17:07.786Z,5.93
2018-11-10T08:22:11.123Z,5.67
2018-11-10T08:27:16.510Z,5.37
2018-11-10T08:32:20.034Z,6.00
2018-11-10T08:37:23.506Z,6.10
2018-11-10T08:42:26.890Z,5.93
2018-11-10T08:47:30.351Z,8.00
2018-11-10T08:52:33.710Z,5.80
2018-11-10T08:57:39.001Z,5.30
2018-11-10T09:02:42.795Z,5.07
2018-11-10T09:07:46.463Z,4.60
2018-11-10T09:12:51.575Z,4.83
2018-11-10T09:17:55.384Z,4.33
2018-11-10T09:22:58.985Z,4.63
2018-11-10T09:28:04.052Z,5.67
2018-11-10T09:33:07.625Z,7.17
2018-11-10T09:38:12.477Z,7.12
2018-11-10T09:43:15.868Z,5.83
2018-11-10T09:48:19.606Z,7.00
2018-11-10T09:53:23.053Z,6.30
2018-11-10T09:58:27.024Z,5.70
2018-11-10T10:03:30.767Z,6.27
2018-11-10T10:08:34.495Z,4.97
2018-11-10T10:13:38.245Z,4.20
2018-11-10T10:18:41.713Z,3.30
2018-11-10T10:29:13.785Z,3.23
2018-11-10T10:34:17.593Z,3.50
2018-11-10T10:39:21.194Z,3.43
2018-11-10T10:44:27.109Z,4.20
2018-11-10T10:49:30.859Z,4.60
2018-11-10T10:54:36.048Z,4.73
2018-11-10T10:59:39.791Z,7.30
2018-11-10T11:04:49.028Z,4.50
2018-11-10T11:09:52.597Z,5.20
2018-11-10T11:14:58.417Z,4.80
2018-11-10T11:20:02.107Z,4.43
2018-11-10T11:25:06.548Z,5.65
2018-11-10T11:30:18.580Z,4.50
2018-11-10T11:35:24.481Z,5.60
2018-11-10T11:40:27.775Z,5.37
2018-11-10T11:45:31.137Z,6.45
2018-11-10T11:50:34.668Z,5.33
2018-11-10T11:55:39.236Z,5.60
2018-11-10T12:00:43.064Z,5.45
2018-11-10T12:05:46.906Z,5.37
2018-11-10T12:10:50.558Z,5.17
2018-11-10T12:15:54.400Z,4.85
2018-11-10T12:20:58.060Z,5.45
2018-11-10T12:26:01.608Z,6.25
2018-11-10T12:31:05.923Z,6.45
2018-11-10T12:36:09.514Z,6.78
2018-11-10T12:41:12.953Z,6.83
2018-11-10T12:46:17.860Z,7.08
2018-11-10T12:51:21.623Z,7.20
2018-11-10T12:56:25.709Z,7.08
2018-11-10T13:01:29.516Z,6.72
2018-11-10T13:06:33.150Z,6.65
2018-11-10T13:11:37.346Z,6.75
2018-11-10T13:16:40.984Z,5.97
2018-11-10T13:21:44.622Z,5.75
2018-11-10T13:26:48.009Z,6.05
2018-11-10T13:31:51.447Z,6.65
2018-11-10T13:36:54.827Z,6.45
2018-11-10T13:41:58.161Z,6.57
2018-11-10T13:47:01.798Z,5.65
2018-11-10T13:52:05.905Z,5.73
2018-11-10T13:57:09.133Z,5.63
2018-11-10T14:02:12.705Z,5.55
2018-11-10T14:07:16.072Z,5.80
2018-11-10T14:12:19.385Z,6.03
2018-11-10T14:17:22.685Z,5.37
2018-11-10T14:22:26.373Z,6.07
2018-11-10T14:27:30.197Z,5.50
2018-11-10T14:32:33.837Z,8.60
2018-11-10T14:37:38.269Z,9.03
2018-11-10T14:42:50.784Z,6.00
2018-11-10T14:47:54.780Z,6.37
2018-11-10T14:52:59.012Z,7.07
2018-11-10T14:58:03.104Z,5.90
2018-11-10T15:03:06.964Z,6.27
2018-11-10T15:08:10.595Z,6.53
2018-11-10T15:13:14.396Z,5.33
2018-11-10T15:18:19.156Z,5.77
2018-11-10T15:23:22.848Z,5.83
2018-11-10T15:28:26.187Z,5.27
2018-11-10T15:33:30.256Z,10.83
2018-11-10T15:38:33.635Z,9.13
2018-11-10T15:43:37.149Z,5.70
2018-11-10T15:48:40.658Z,5.50
2018-11-10T15:53:44.437Z,7.13
2018-11-10T15:58:48.904Z,9.73
2018-11-10T16:03:52.768Z,9.57
2018-11-10T16:08:57.007Z,8.00
2018-11-10T16:14:00.918Z,8.10
2018-11-10T16:19:06.016Z,8.67
2018-11-10T16:24:10.282Z,8.73
2018-11-10T16:29:14.908Z,10.33
2018-11-10T16:34:18.698Z,10.93
2018-11-10T16:39:22.134Z,11.20
2018-11-10T16:44:37.181Z,10.90
2018-11-10T17:12:08.199Z,8.87
2018-11-10T17:17:11.778Z,8.60
2018-11-10T17:22:15.331Z,8.83
2018-11-10T17:27:18.562Z,10.57
2018-11-10T17:32:22.086Z,10.23
2018-11-10T17:37:25.388Z,10.63
2018-11-10T17:42:28.949Z,10.90
2018-11-10T17:47:32.285Z,10.70
2018-11-10T17:52:35.660Z,10.10
2018-11-10T17:57:39.024Z,11.63
2018-11-10T18:02:42.530Z,12.53
2018-11-10T18:07:46.943Z,11.40
2018-11-10T18:12:50.728Z,10.87
2018-11-10T18:17:54.187Z,12.40
2018-11-10T18:22:58.174Z,11.83
2018-11-10T18:28:01.962Z,11.87
2018-11-10T18:33:05.954Z,11.87
2018-11-10T18:38:09.534Z,10.73
2018-11-10T18:43:13.061Z,9.83
2018-11-10T18:48:16.829Z,10.37
2018-11-10T18:53:20.483Z,11.83
2018-11-10T18:58:24.472Z,10.70
2018-11-10T19:03:28.357Z,10.67
2018-11-10T19:08:32.125Z,10.67
2018-11-10T19:13:35.787Z,11.33
2018-11-10T19:18:40.003Z,11.33
2018-11-10T19:23:44.557Z,11.30
2018-11-10T20:02:30.929Z,8.43
2018-11-10T20:07:39.543Z,8.73
2018-11-10T20:12:46.995Z,7.90
2018-11-10T20:23:28.745Z,8.50
2018-11-10T20:28:39.442Z,9.17
2018-11-10T20:33:50.702Z,9.23
2018-11-10T20:38:54.424Z,8.73
2018-11-10T20:43:58.684Z,10.77
2018-11-10T20:49:02.542Z,9.13
2018-11-10T20:54:06.179Z,8.70
2018-11-10T20:59:09.761Z,8.30
2018-11-10T21:04:14.407Z,10.00
2018-11-10T21:09:18.751Z,8.53
2018-11-10T21:14:23.667Z,8.63
2018-11-10T21:19:27.402Z,9.03
2018-11-10T21:24:33.380Z,9.17
2018-11-10T21:29:36.891Z,8.23
2018-11-10T21:34:40.694Z,8.93
2018-11-10T21:39:44.389Z,8.43
2018-11-10T21:44:48.009Z,8.33
2018-11-10T21:49:51.554Z,9.17
2018-11-10T21:54:54.881Z,8.40
2018-11-10T21:59:58.471Z,8.47
2018-11-10T22:05:02.127Z,8.13
2018-11-10T22:10:07.228Z,8.07
2018-11-10T22:15:15.518Z,9.10
2018-11-10T22:20:20.470Z,7.57
2018-11-10T22:25:24.066Z,8.13
2018-11-10T22:30:27.449Z,10.60
2018-11-10T22:35:30.781Z,8.60
2018-11-10T22:40:34.444Z,8.10
2018-11-10T22:45:37.954Z,8.53
2018-11-10T22:50:41.299Z,8.73
2018-11-10T22:55:44.819Z,8.70
2018-11-10T23:00:53.731Z,8.40
2018-11-10T23:05:57.471Z,8.33
2018-11-10T23:11:01.172Z,8.07
2018-11-10T23:16:04.959Z,8.40
2018-11-10T23:21:10.429Z,9.20
2018-11-10T23:26:14.240Z,8.87
2018-11-10T23:31:17.841Z,8.80
2018-11-10T23:36:21.606Z,8.30
2018-11-10T23:41:25.327Z,8.20
2018-11-10T23:46:29.251Z,8.20
2018-11-10T23:51:33.265Z,8.30
2018-11-10T23:56:36.960Z,8.67
